sensor_id;sensor_type;location;lat;lon;timestamp;pressure;altitude;pressure_sealevel;temperature;humidity
3668;BME280;24099;47.102;15.440;2023-06-01T00:00:22;97347.41;;;15.38;100.00
3668;BME280;24099;47.102;15.440;2023-06-01T00:02:51;97347.41;;;15.31;100.00
3668;BME280;24099;47.102;15.440;2023-06-01T00:05:18;97350.25;;;15.30;100.00
3668;BME280;24099;47.102;15.440;2023-06-01T00:07:46;97349.66;;;15.34;100.00
3668;BME280;24099;47.102;15.440;2023-06-01T00:10:15;97348.63;;;15.35;100.00
3668;BME280;24099;47.102;15.440;2023-06-01T00:12:43;97354.75;;;15.36;100.00
3668;BME280;24099;47.102;15.440;2023-06-01T00:15:10;97346.78;;;15.29;100.00
3668;BME280;24099;47.102;15.440;2023-06-01T00:17:38;97345.97;;;15.29;100.00
3668;BME280;24099;47.102;15.440;2023-06-01T00:20:06;97351.13;;;15.17;100.00
3668;BME280;24099;47.102;15.440;2023-06-01T00:22:35;97351.09;;;15.24;100.00
3668;BME280;24099;47.102;15.440;2023-06-01T00:25:06;97347.41;;;15.25;100.00
3668;BME280;24099;47.102;15.440;2023-06-01T00:27:35;97355.16;;;15.26;100.00
3668;BME280;24099;47.102;15.440;2023-06-01T00:30:03;97353.31;;;15.20;100.00
3668;BME280;24099;47.102;15.440;2023-06-01T00:32:31;97350.25;;;15.23;100.00
3668;BME280;24099;47.102;15.440;2023-06-01T00:34:59;97348.84;;;15.27;100.00
3668;BME280;24099;47.102;15.440;2023-06-01T00:37:26;97353.56;;;15.19;100.00
3668;BME280;24099;47.102;15.440;2023-06-01T00:39:54;97352.75;;;15.11;100.00
3668;BME280;24099;47.102;15.440;2023-06-01T00:42:22;97350.91;;;15.12;100.00
3668;BME280;24099;47.102;15.440;2023-06-01T00:44:51;97349.28;;;15.04;100.00
3668;BME280;24099;47.102;15.440;2023-06-01T00:47:20;97345.19;;;15.08;100.00
3668;BME280;24099;47.102;15.440;2023-06-01T00:49:48;97344.19;;;15.09;100.00
3668;BME280;24099;47.102;15.440;2023-06-01T00:52:16;97340.50;;;15.17;100.00
3668;BME280;24099;47.102;15.440;2023-06-01T00:54:44;97337.44;;;15.13;100.00
3668;BME280;24099;47.102;15.440;2023-06-01T00:57:12;97341.72;;;15.08;100.00
3668;BME280;24099;47.102;15.440;2023-06-01T00:59:42;97342.53;;;15.08;100.00
3668;BME280;24099;47.102;15.440;2023-06-01T01:02:11;97342.13;;;15.05;100.00
3668;BME280;24099;47.102;15.440;2023-06-01T01:04:41;97336.44;;;15.01;100.00
3668;BME280;24099;47.102;15.440;2023-06-01T01:07:13;97341.94;;;15.06;100.00
3668;BME280;24099;47.102;15.440;2023-06-01T01:09:53;97324.19;;;15.00;100.00
3668;BME280;24099;47.102;15.440;2023-06-01T01:12:28;97338.66;;;15.04;100.00
3668;BME280;24099;47.102;15.440;2023-06-01T01:15:04;97334.38;;;15.03;100.00
3668;BME280;24099;47.102;15.440;2023-06-01T01:17:39;97339.28;;;15.06;100.00
3668;BME280;24099;47.102;15.440;2023-06-01T01:20:13;97329.28;;;15.08;100.00
3668;BME280;24099;47.102;15.440;2023-06-01T01:23:02;97327.03;;;14.99;100.00
3668;BME280;24099;47.102;15.440;2023-06-01T01:26:03;97329.91;;;15.04;100.00
3668;BME280;24099;47.102;15.440;2023-06-01T01:28:43;97328.88;;;15.05;100.00
3668;BME280;24099;47.102;15.440;2023-06-01T01:31:17;97336.84;;;14.98;100.00
3668;BME280;24099;47.102;15.440;2023-06-01T01:33:46;97329.28;;;15.02;100.00
3668;BME280;24099;47.102;15.440;2023-06-01T01:36:16;97332.75;;;15.15;100.00
3668;BME280;24099;47.102;15.440;2023-06-01T01:38:44;97323.78;;;15.10;100.00
3668;BME280;24099;47.102;15.440;2023-06-01T01:41:12;97332.97;;;15.07;100.00
3668;BME280;24099;47.102;15.440;2023-06-01T01:43:41;97333.38;;;15.11;100.00
3668;BME280;24099;47.102;15.440;2023-06-01T01:46:18;97325.81;;;15.01;100.00
3668;BME280;24099;47.102;15.440;2023-06-01T01:48:54;97324.63;;;14.97;100.00
3668;BME280;24099;47.102;15.440;2023-06-01T01:51:29;97321.16;;;14.90;100.00
3668;BME280;24099;47.102;15.440;2023-06-01T01:54:00;97328.28;;;14.90;100.00
3668;BME280;24099;47.102;15.440;2023-06-01T01:56:36;97325.03;;;14.81;100.00
3668;BME280;24099;47.102;15.440;2023-06-01T01:59:06;97321.75;;;14.79;100.00
3668;BME280;24099;47.102;15.440;2023-06-01T02:01:34;97325.66;;;14.70;100.00
3668;BME280;24099;47.102;15.440;2023-06-01T02:04:03;97324.22;;;14.74;100.00
3668;BME280;24099;47.102;15.440;2023-06-01T02:06:33;97319.75;;;14.68;100.00
3668;BME280;24099;47.102;15.440;2023-06-01T02:09:03;97318.09;;;14.67;100.00
3668;BME280;24099;47.102;15.440;2023-06-01T02:11:33;97313.44;;;14.56;100.00
3668;BME280;24099;47.102;15.440;2023-06-01T02:14:01;97323.59;;;14.45;100.00
3668;BME280;24099;47.102;15.440;2023-06-01T02:16:31;97312.81;;;14.47;100.00
3668;BME280;24099;47.102;15.440;2023-06-01T02:18:59;97318.25;;;14.26;100.00
3668;BME280;24099;47.102;15.440;2023-06-01T02:21:29;97325.16;;;14.20;100.00
3668;BME280;24099;47.102;15.440;2023-06-01T02:24:01;97317.22;;;14.13;100.00
3668;BME280;24099;47.102;15.440;2023-06-01T02:26:31;97322.31;;;14.15;100.00
3668;BME280;24099;47.102;15.440;2023-06-01T02:28:59;97319.22;;;13.98;100.00
3668;BME280;24099;47.102;15.440;2023-06-01T02:31:30;97319.97;;;13.86;100.00
3668;BME280;24099;47.102;15.440;2023-06-01T02:33:58;97322.22;;;13.89;100.00
3668;BME280;24099;47.102;15.440;2023-06-01T02:36:28;97318.13;;;13.79;100.00
3668;BME280;24099;47.102;15.440;2023-06-01T02:38:58;97323.81;;;13.76;100.00
3668;BME280;24099;47.102;15.440;2023-06-01T02:41:27;97321.97;;;13.70;100.00
3668;BME280;24099;47.102;15.440;2023-06-01T02:43:55;97329.31;;;13.75;100.00
3668;BME280;24099;47.102;15.440;2023-06-01T02:46:22;97323.84;;;13.83;100.00
3668;BME280;24099;47.102;15.440;2023-06-01T02:48:53;97322.81;;;13.77;100.00
3668;BME280;24099;47.102;15.440;2023-06-01T02:51:23;97322.53;;;13.66;100.00
3668;BME280;24099;47.102;15.440;2023-06-01T02:54:02;97316.63;;;13.57;100.00
3668;BME280;24099;47.102;15.440;2023-06-01T02:56:30;97321.09;;;13.63;100.00
3668;BME280;24099;47.102;15.440;2023-06-01T02:59:06;97315.72;;;13.43;100.00
3668;BME280;24099;47.102;15.440;2023-06-01T03:01:40;97319.19;;;13.44;100.00
3668;BME280;24099;47.102;15.440;2023-06-01T03:04:09;97314.91;;;13.43;100.00
3668;BME280;24099;47.102;15.440;2023-06-01T03:06:38;97309.56;;;13.30;100.00
3668;BME280;24099;47.102;15.440;2023-06-01T03:09:13;97311.16;;;13.24;100.00
3668;BME280;24099;47.102;15.440;2023-06-01T03:11:56;97311.34;;;13.23;100.00
3668;BME280;24099;47.102;15.440;2023-06-01T03:14:25;97311.53;;;13.21;100.00
3668;BME280;24099;47.102;15.440;2023-06-01T03:16:53;97317.50;;;13.30;100.00
3668;BME280;24099;47.102;15.440;2023-06-01T03:19:23;97316.06;;;13.27;100.00
3668;BME280;24099;47.102;15.440;2023-06-01T03:21:54;97316.63;;;13.23;100.00
3668;BME280;24099;47.102;15.440;2023-06-01T03:24:23;97313.56;;;13.19;100.00
3668;BME280;24099;47.102;15.440;2023-06-01T03:26:55;97316.78;;;13.15;100.00
3668;BME280;24099;47.102;15.440;2023-06-01T03:29:24;97315.91;;;13.07;100.00
3668;BME280;24099;47.102;15.440;2023-06-01T03:31:52;97313.09;;;13.09;100.00
3668;BME280;24099;47.102;15.440;2023-06-01T03:34:24;97316.69;;;13.01;100.00
3668;BME280;24099;47.102;15.440;2023-06-01T03:36:55;97317.50;;;13.02;100.00
3668;BME280;24099;47.102;15.440;2023-06-01T03:39:23;97319.88;;;13.18;100.00
3668;BME280;24099;47.102;15.440;2023-06-01T03:41:51;97317.78;;;13.14;100.00
3668;BME280;24099;47.102;15.440;2023-06-01T03:44:19;97321.38;;;13.06;100.00
3668;BME280;24099;47.102;15.440;2023-06-01T03:46:48;97323.41;;;13.04;100.00
3668;BME280;24099;47.102;15.440;2023-06-01T03:49:17;97323.56;;;12.96;100.00
3668;BME280;24099;47.102;15.440;2023-06-01T03:51:48;97329.13;;;13.07;100.00
3668;BME280;24099;47.102;15.440;2023-06-01T03:54:16;97330.84;;;13.15;100.00
3668;BME280;24099;47.102;15.440;2023-06-01T03:56:45;97332.63;;;13.15;100.00
3668;BME280;24099;47.102;15.440;2023-06-01T03:59:16;97329.94;;;13.08;100.00
3668;BME280;24099;47.102;15.440;2023-06-01T04:01:47;97329.66;;;13.18;100.00
3668;BME280;24099;47.102;15.440;2023-06-01T04:04:16;97326.72;;;13.13;100.00
3668;BME280;24099;47.102;15.440;2023-06-01T04:06:46;97325.28;;;13.10;100.00
3668;BME280;24099;47.102;15.440;2023-06-01T04:09:16;97331.78;;;13.07;100.00
3668;BME280;24099;47.102;15.440;2023-06-01T04:11:45;97325.91;;;13.12;100.00
3668;BME280;24099;47.102;15.440;2023-06-01T04:14:15;97323.28;;;13.12;100.00
3668;BME280;24099;47.102;15.440;2023-06-01T04:16:43;97323.28;;;13.12;100.00
3668;BME280;24099;47.102;15.440;2023-06-01T04:19:10;97320.28;;;13.15;100.00
3668;BME280;24099;47.102;15.440;2023-06-01T04:21:39;97316.44;;;13.24;100.00
3668;BME280;24099;47.102;15.440;2023-06-01T04:24:08;97322.84;;;13.43;100.00
3668;BME280;24099;47.102;15.440;2023-06-01T04:26:37;97314.72;;;13.38;100.00
3668;BME280;24099;47.102;15.440;2023-06-01T04:29:04;97311.84;;;13.33;100.00
3668;BME280;24099;47.102;15.440;2023-06-01T04:31:32;97307.78;;;13.37;100.00
3668;BME280;24099;47.102;15.440;2023-06-01T04:34:01;97305.53;;;13.40;100.00
3668;BME280;24099;47.102;15.440;2023-06-01T04:36:30;97315.72;;;13.37;100.00
3668;BME280;24099;47.102;15.440;2023-06-01T04:39:07;97318.41;;;13.50;100.00
3668;BME280;24099;47.102;15.440;2023-06-01T04:41:36;97315.41;;;13.60;100.00
3668;BME280;24099;47.102;15.440;2023-06-01T04:44:04;97308.91;;;13.62;100.00
3668;BME280;24099;47.102;15.440;2023-06-01T04:46:33;97313.41;;;13.68;100.00
3668;BME280;24099;47.102;15.440;2023-06-01T04:49:01;97321.97;;;13.70;100.00
3668;BME280;24099;47.102;15.440;2023-06-01T04:51:31;97316.50;;;13.85;100.00
3668;BME280;24099;47.102;15.440;2023-06-01T04:53:59;97305.16;;;13.91;100.00
3668;BME280;24099;47.102;15.440;2023-06-01T04:56:32;97306.78;;;13.99;100.00
3668;BME280;24099;47.102;15.440;2023-06-01T04:59:00;97303.94;;;13.94;100.00
3668;BME280;24099;47.102;15.440;2023-06-01T05:01:31;97307.41;;;13.94;100.00
3668;BME280;24099;47.102;15.440;2023-06-01T05:04:00;97311.44;;;13.90;100.00
3668;BME280;24099;47.102;15.440;2023-06-01T05:06:28;97311.50;;;14.10;100.00
3668;BME280;24099;47.102;15.440;2023-06-01T05:08:56;97312.94;;;14.19;100.00
3668;BME280;24099;47.102;15.440;2023-06-01T05:11:24;97303.38;;;14.31;100.00
3668;BME280;24099;47.102;15.440;2023-06-01T05:13:53;97302.00;;;14.42;100.00
3668;BME280;24099;47.102;15.440;2023-06-01T05:16:28;97304.06;;;14.53;100.00
3668;BME280;24099;47.102;15.440;2023-06-01T05:18:56;97301.19;;;14.61;100.00
3668;BME280;24099;47.102;15.440;2023-06-01T05:21:23;97295.88;;;14.68;100.00
3668;BME280;24099;47.102;15.440;2023-06-01T05:23:51;97304.03;;;14.86;100.00
3668;BME280;24099;47.102;15.440;2023-06-01T05:26:21;97298.28;;;15.02;100.00
3668;BME280;24099;47.102;15.440;2023-06-01T05:28:49;97294.78;;;15.22;100.00
3668;BME280;24099;47.102;15.440;2023-06-01T05:31:18;97297.84;;;15.25;100.00
3668;BME280;24099;47.102;15.440;2023-06-01T05:33:52;97288.84;;;15.33;100.00
3668;BME280;24099;47.102;15.440;2023-06-01T05:36:20;97278.03;;;15.34;100.00
3668;BME280;24099;47.102;15.440;2023-06-01T05:38:48;97294.53;;;15.56;100.00
3668;BME280;24099;47.102;15.440;2023-06-01T05:41:16;97289.00;;;15.44;100.00
3668;BME280;24099;47.102;15.440;2023-06-01T05:43:44;97283.91;;;15.49;100.00
3668;BME280;24099;47.102;15.440;2023-06-01T05:46:12;97275.28;;;15.61;100.00
3668;BME280;24099;47.102;15.440;2023-06-01T05:48:41;97278.31;;;15.77;100.00
3668;BME280;24099;47.102;15.440;2023-06-01T05:51:11;97290.09;;;15.81;100.00
3668;BME280;24099;47.102;15.440;2023-06-01T05:53:40;97292.94;;;15.87;100.00
3668;BME280;24099;47.102;15.440;2023-06-01T05:56:08;97287.22;;;15.90;100.00
3668;BME280;24099;47.102;15.440;2023-06-01T05:58:36;97278.00;;;15.92;100.00
3668;BME280;24099;47.102;15.440;2023-06-01T06:01:03;97270.81;;;15.99;100.00
3668;BME280;24099;47.102;15.440;2023-06-01T06:03:31;97255.94;;;16.23;100.00
3668;BME280;24099;47.102;15.440;2023-06-01T06:06:01;97239.53;;;16.33;100.00
3668;BME280;24099;47.102;15.440;2023-06-01T06:08:29;97235.59;;;16.67;100.00
3668;BME280;24099;47.102;15.440;2023-06-01T06:10:56;97236.88;;;16.82;100.00
3668;BME280;24099;47.102;15.440;2023-06-01T06:13:24;97234.97;;;16.90;100.00
3668;BME280;24099;47.102;15.440;2023-06-01T06:15:52;97227.88;;;16.83;100.00
3668;BME280;24099;47.102;15.440;2023-06-01T06:18:21;97243.59;;;16.85;100.00
3668;BME280;24099;47.102;15.440;2023-06-01T06:20:49;97239.66;;;17.12;100.00
3668;BME280;24099;47.102;15.440;2023-06-01T06:23:18;97233.34;;;17.25;100.00
3668;BME280;24099;47.102;15.440;2023-06-01T06:25:47;97223.56;;;17.55;100.00
3668;BME280;24099;47.102;15.440;2023-06-01T06:28:17;97207.75;;;17.90;100.00
3668;BME280;24099;47.102;15.440;2023-06-01T06:30:45;97208.78;;;17.89;100.00
3668;BME280;24099;47.102;15.440;2023-06-01T06:33:12;97212.69;;;17.75;100.00
3668;BME280;24099;47.102;15.440;2023-06-01T06:35:40;97223.22;;;17.82;100.00
3668;BME280;24099;47.102;15.440;2023-06-01T06:38:09;97225.94;;;17.94;100.00
3668;BME280;24099;47.102;15.440;2023-06-01T06:40:39;97228.28;;;18.02;100.00
3668;BME280;24099;47.102;15.440;2023-06-01T06:43:06;97211.16;;;18.09;100.00
3668;BME280;24099;47.102;15.440;2023-06-01T06:45:34;97199.16;;;18.30;100.00
3668;BME280;24099;47.102;15.440;2023-06-01T06:48:01;97202.41;;;18.44;100.00
3668;BME280;24099;47.102;15.440;2023-06-01T06:50:29;97199.88;;;18.61;100.00
3668;BME280;24099;47.102;15.440;2023-06-01T06:52:57;97203.47;;;18.66;100.00
3668;BME280;24099;47.102;15.440;2023-06-01T06:55:25;97208.72;;;18.73;100.00
3668;BME280;24099;47.102;15.440;2023-06-01T06:57:54;97207.44;;;18.75;100.00
3668;BME280;24099;47.102;15.440;2023-06-01T07:00:23;97202.09;;;18.87;100.00
3668;BME280;24099;47.102;15.440;2023-06-01T07:02:50;97192.44;;;19.09;100.00
3668;BME280;24099;47.102;15.440;2023-06-01T07:05:18;97201.19;;;19.21;100.00
3668;BME280;24099;47.102;15.440;2023-06-01T07:07:46;97183.34;;;19.22;100.00
3668;BME280;24099;47.102;15.440;2023-06-01T07:10:14;97180.25;;;19.42;100.00
3668;BME280;24099;47.102;15.440;2023-06-01T07:12:42;97176.06;;;19.46;100.00
3668;BME280;24099;47.102;15.440;2023-06-01T07:15:11;97173.25;;;19.64;100.00
3668;BME280;24099;47.102;15.440;2023-06-01T07:17:39;97178.88;;;19.51;100.00
3668;BME280;24099;47.102;15.440;2023-06-01T07:20:08;97167.72;;;19.54;100.00
3668;BME280;24099;47.102;15.440;2023-06-01T07:22:38;97184.66;;;19.48;100.00
3668;BME280;24099;47.102;15.440;2023-06-01T07:25:06;97189.16;;;19.59;100.00
3668;BME280;24099;47.102;15.440;2023-06-01T07:27:35;97177.94;;;19.45;100.00
3668;BME280;24099;47.102;15.440;2023-06-01T07:30:04;97178.81;;;19.63;100.00
3668;BME280;24099;47.102;15.440;2023-06-01T07:32:33;97192.72;;;19.76;100.00
3668;BME280;24099;47.102;15.440;2023-06-01T07:35:01;97175.53;;;20.17;100.00
3668;BME280;24099;47.102;15.440;2023-06-01T07:37:31;97173.81;;;20.28;100.00
3668;BME280;24099;47.102;15.440;2023-06-01T07:40:00;97177.31;;;20.45;100.00
3668;BME280;24099;47.102;15.440;2023-06-01T07:42:28;97187.41;;;20.60;100.00
3668;BME280;24099;47.102;15.440;2023-06-01T07:44:56;97178.50;;;20.71;100.00
3668;BME280;24099;47.102;15.440;2023-06-01T07:47:24;97170.56;;;20.76;100.00
3668;BME280;24099;47.102;15.440;2023-06-01T07:49:54;97173.88;;;21.05;99.61
3668;BME280;24099;47.102;15.440;2023-06-01T07:52:21;97176.13;;;21.13;96.96
3668;BME280;24099;47.102;15.440;2023-06-01T07:54:49;97177.75;;;21.14;100.00
3668;BME280;24099;47.102;15.440;2023-06-01T07:57:18;97175.75;;;21.26;100.00
3668;BME280;24099;47.102;15.440;2023-06-01T07:59:45;97171.31;;;21.15;96.65
3668;BME280;24099;47.102;15.440;2023-06-01T08:02:13;97169.09;;;21.29;94.45
3668;BME280;24099;47.102;15.440;2023-06-01T08:04:41;97168.94;;;21.36;95.36
3668;BME280;24099;47.102;15.440;2023-06-01T08:07:11;97169.56;;;21.70;96.67
3668;BME280;24099;47.102;15.440;2023-06-01T08:09:42;97169.44;;;21.86;96.54
3668;BME280;24099;47.102;15.440;2023-06-01T08:12:09;97162.03;;;21.98;93.63
3668;BME280;24099;47.102;15.440;2023-06-01T08:14:39;97160.44;;;21.97;91.22
3668;BME280;24099;47.102;15.440;2023-06-01T08:17:07;97162.53;;;21.90;90.07
3668;BME280;24099;47.102;15.440;2023-06-01T08:19:39;97161.91;;;21.83;89.46
3668;BME280;24099;47.102;15.440;2023-06-01T08:22:11;97161.97;;;21.88;89.99
3668;BME280;24099;47.102;15.440;2023-06-01T08:24:39;97154.59;;;22.00;91.56
3668;BME280;24099;47.102;15.440;2023-06-01T08:27:16;97161.22;;;22.25;92.13
3668;BME280;24099;47.102;15.440;2023-06-01T08:29:46;97156.28;;;22.44;91.85
3668;BME280;24099;47.102;15.440;2023-06-01T08:32:15;97148.47;;;22.42;89.24
3668;BME280;24099;47.102;15.440;2023-06-01T08:34:44;97138.59;;;22.48;92.12
3668;BME280;24099;47.102;15.440;2023-06-01T08:37:13;97140.22;;;22.49;90.83
3668;BME280;24099;47.102;15.440;2023-06-01T08:39:41;97132.22;;;22.54;90.74
3668;BME280;24099;47.102;15.440;2023-06-01T08:42:12;97140.63;;;22.73;90.21
3668;BME280;24099;47.102;15.440;2023-06-01T08:44:42;97146.84;;;22.78;90.63
3668;BME280;24099;47.102;15.440;2023-06-01T08:47:10;97144.47;;;22.82;90.46
3668;BME280;24099;47.102;15.440;2023-06-01T08:49:41;97143.50;;;22.98;92.53
3668;BME280;24099;47.102;15.440;2023-06-01T08:52:14;97143.81;;;23.12;99.00
3668;BME280;24099;47.102;15.440;2023-06-01T08:54:44;97141.81;;;22.87;86.48
3668;BME280;24099;47.102;15.440;2023-06-01T08:57:12;97141.88;;;23.02;90.80
3668;BME280;24099;47.102;15.440;2023-06-01T08:59:43;97138.47;;;23.17;89.79
3668;BME280;24099;47.102;15.440;2023-06-01T09:02:13;97146.19;;;22.98;87.30
3668;BME280;24099;47.102;15.440;2023-06-01T09:04:41;97138.25;;;23.38;88.26
3668;BME280;24099;47.102;15.440;2023-06-01T09:07:11;97143.09;;;23.36;86.05
3668;BME280;24099;47.102;15.440;2023-06-01T09:09:41;97139.03;;;23.29;85.76
3668;BME280;24099;47.102;15.440;2023-06-01T09:12:20;97132.59;;;23.30;86.79
3668;BME280;24099;47.102;15.440;2023-06-01T09:14:48;97135.16;;;23.77;85.35
3668;BME280;24099;47.102;15.440;2023-06-01T09:17:22;97136.00;;;23.10;85.72
3668;BME280;24099;47.102;15.440;2023-06-01T09:19:52;97127.47;;;23.23;86.03
3668;BME280;24099;47.102;15.440;2023-06-01T09:22:20;97127.31;;;23.55;83.52
3668;BME280;24099;47.102;15.440;2023-06-01T09:24:58;97125.91;;;23.48;82.44
3668;BME280;24099;47.102;15.440;2023-06-01T09:27:26;97122.69;;;23.46;85.62
3668;BME280;24099;47.102;15.440;2023-06-01T09:29:55;97119.03;;;23.87;87.16
3668;BME280;24099;47.102;15.440;2023-06-01T09:32:23;97117.94;;;23.83;83.06
3668;BME280;24099;47.102;15.440;2023-06-01T09:34:51;97123.34;;;24.29;82.26
3668;BME280;24099;47.102;15.440;2023-06-01T09:37:20;97120.91;;;24.02;83.25
3668;BME280;24099;47.102;15.440;2023-06-01T09:39:47;97127.31;;;24.72;88.57
3668;BME280;24099;47.102;15.440;2023-06-01T09:42:17;97118.66;;;24.85;81.02
3668;BME280;24099;47.102;15.440;2023-06-01T09:44:45;97114.44;;;24.18;79.60
3668;BME280;24099;47.102;15.440;2023-06-01T09:47:16;97119.53;;;24.65;83.18
3668;BME280;24099;47.102;15.440;2023-06-01T09:49:45;97123.75;;;24.92;80.77
3668;BME280;24099;47.102;15.440;2023-06-01T09:52:18;97117.94;;;24.44;79.90
3668;BME280;24099;47.102;15.440;2023-06-01T09:54:48;97117.63;;;24.61;77.00
3668;BME280;24099;47.102;15.440;2023-06-01T09:57:23;97110.91;;;24.58;77.30
3668;BME280;24099;47.102;15.440;2023-06-01T09:59:52;97106.78;;;24.91;81.11
3668;BME280;24099;47.102;15.440;2023-06-01T10:02:22;97103.25;;;25.06;81.08
3668;BME280;24099;47.102;15.440;2023-06-01T10:04:51;97105.13;;;25.11;82.26
3668;BME280;24099;47.102;15.440;2023-06-01T10:07:20;97107.09;;;24.95;79.47
3668;BME280;24099;47.102;15.440;2023-06-01T10:09:51;97105.16;;;25.05;78.75
3668;BME280;24099;47.102;15.440;2023-06-01T10:12:21;97107.16;;;24.59;77.35
3668;BME280;24099;47.102;15.440;2023-06-01T10:14:50;97104.41;;;24.95;77.64
3668;BME280;24099;47.102;15.440;2023-06-01T10:17:18;97097.72;;;24.67;77.49
3668;BME280;24099;47.102;15.440;2023-06-01T10:19:46;97090.66;;;24.81;76.82
3668;BME280;24099;47.102;15.440;2023-06-01T10:22:14;97087.38;;;25.04;76.64
3668;BME280;24099;47.102;15.440;2023-06-01T10:24:44;97091.97;;;24.94;77.96
3668;BME280;24099;47.102;15.440;2023-06-01T10:27:22;97094.09;;;25.07;77.03
3668;BME280;24099;47.102;15.440;2023-06-01T10:29:54;97080.28;;;25.19;79.34
3668;BME280;24099;47.102;15.440;2023-06-01T10:32:40;97085.53;;;24.85;79.14
3668;BME280;24099;47.102;15.440;2023-06-01T10:38:29;97078.22;;;25.00;77.58
3668;BME280;24099;47.102;15.440;2023-06-01T10:41:26;97077.66;;;25.58;78.28
3668;BME280;24099;47.102;15.440;2023-06-01T10:43:57;97078.78;;;25.47;75.11
3668;BME280;24099;47.102;15.440;2023-06-01T10:46:38;97075.00;;;25.92;77.07
3668;BME280;24099;47.102;15.440;2023-06-01T10:49:07;97072.09;;;26.46;73.49
3668;BME280;24099;47.102;15.440;2023-06-01T10:51:36;97077.66;;;26.26;75.21
3668;BME280;24099;47.102;15.440;2023-06-01T10:54:24;97076.41;;;25.84;72.27
3668;BME280;24099;47.102;15.440;2023-06-01T10:57:19;97068.97;;;26.00;72.87
3668;BME280;24099;47.102;15.440;2023-06-01T11:00:16;97063.50;;;26.10;75.12
3668;BME280;24099;47.102;15.440;2023-06-01T11:02:55;97064.19;;;26.21;70.99
3668;BME280;24099;47.102;15.440;2023-06-01T11:05:40;97057.16;;;26.54;70.85
3668;BME280;24099;47.102;15.440;2023-06-01T11:11:17;97044.28;;;26.93;70.19
3668;BME280;24099;47.102;15.440;2023-06-01T11:14:09;97041.88;;;26.15;71.15
3668;BME280;24099;47.102;15.440;2023-06-01T11:16:39;97036.28;;;27.07;71.25
3668;BME280;24099;47.102;15.440;2023-06-01T11:19:07;97046.16;;;27.35;73.11
3668;BME280;24099;47.102;15.440;2023-06-01T11:21:41;97047.38;;;26.82;68.44
3668;BME280;24099;47.102;15.440;2023-06-01T11:24:11;97030.41;;;27.00;69.74
3668;BME280;24099;47.102;15.440;2023-06-01T11:26:41;97032.81;;;26.01;67.77
3668;BME280;24099;47.102;15.440;2023-06-01T11:29:12;97039.31;;;26.00;69.66
3668;BME280;24099;47.102;15.440;2023-06-01T11:31:44;97028.75;;;26.03;67.94
3668;BME280;24099;47.102;15.440;2023-06-01T11:34:13;97017.81;;;26.19;69.49
3668;BME280;24099;47.102;15.440;2023-06-01T11:36:44;97022.06;;;25.67;68.42
3668;BME280;24099;47.102;15.440;2023-06-01T11:39:24;97020.31;;;26.63;67.90
3668;BME280;24099;47.102;15.440;2023-06-01T11:42:04;97023.50;;;27.13;66.84
3668;BME280;24099;47.102;15.440;2023-06-01T11:44:36;97020.63;;;27.04;68.38
3668;BME280;24099;47.102;15.440;2023-06-01T11:47:08;97017.28;;;26.69;66.54
3668;BME280;24099;47.102;15.440;2023-06-01T11:49:42;97017.72;;;26.29;68.13
3668;BME280;24099;47.102;15.440;2023-06-01T11:52:11;97010.19;;;26.55;67.23
3668;BME280;24099;47.102;15.440;2023-06-01T11:54:39;97005.69;;;26.45;68.82
3668;BME280;24099;47.102;15.440;2023-06-01T11:57:10;97003.00;;;26.88;65.84
3668;BME280;24099;47.102;15.440;2023-06-01T11:59:39;96998.19;;;26.85;66.16
3668;BME280;24099;47.102;15.440;2023-06-01T12:02:18;96983.38;;;27.20;63.66
3668;BME280;24099;47.102;15.440;2023-06-01T12:04:58;96989.59;;;27.20;65.65
3668;BME280;24099;47.102;15.440;2023-06-01T12:07:28;96980.31;;;27.26;63.27
3668;BME280;24099;47.102;15.440;2023-06-01T12:09:57;96984.63;;;27.27;63.18
3668;BME280;24099;47.102;15.440;2023-06-01T12:12:27;96972.81;;;26.62;65.46
3668;BME280;24099;47.102;15.440;2023-06-01T12:14:56;96971.75;;;27.38;64.10
3668;BME280;24099;47.102;15.440;2023-06-01T12:17:25;96974.53;;;27.52;66.53
3668;BME280;24099;47.102;15.440;2023-06-01T12:20:12;96956.72;;;27.32;64.18
3668;BME280;24099;47.102;15.440;2023-06-01T12:22:40;96960.78;;;27.67;63.60
3668;BME280;24099;47.102;15.440;2023-06-01T12:25:09;96957.69;;;27.73;64.02
3668;BME280;24099;47.102;15.440;2023-06-01T12:27:37;96957.69;;;27.73;64.17
3668;BME280;24099;47.102;15.440;2023-06-01T12:30:20;96960.25;;;27.32;61.82
3668;BME280;24099;47.102;15.440;2023-06-01T12:32:50;96951.72;;;27.90;62.83
3668;BME280;24099;47.102;15.440;2023-06-01T12:35:17;96952.59;;;27.86;63.57
3668;BME280;24099;47.102;15.440;2023-06-01T12:38:05;96959.94;;;27.99;63.20
3668;BME280;24099;47.102;15.440;2023-06-01T12:40:35;96950.09;;;27.75;61.08
3668;BME280;24099;47.102;15.440;2023-06-01T12:43:03;96936.66;;;27.70;62.59
3668;BME280;24099;47.102;15.440;2023-06-01T12:45:35;96942.03;;;28.17;59.41
3668;BME280;24099;47.102;15.440;2023-06-01T12:48:05;96934.81;;;27.33;62.52
3668;BME280;24099;47.102;15.440;2023-06-01T12:50:34;96930.31;;;27.42;63.51
3668;BME280;24099;47.102;15.440;2023-06-01T12:53:09;96928.78;;;27.04;65.85
3668;BME280;24099;47.102;15.440;2023-06-01T12:55:37;96927.59;;;27.10;61.30
3668;BME280;24099;47.102;15.440;2023-06-01T12:58:08;96928.94;;;27.13;59.37
3668;BME280;24099;47.102;15.440;2023-06-01T13:00:35;96919.31;;;27.20;59.64
3668;BME280;24099;47.102;15.440;2023-06-01T13:03:05;96916.47;;;27.30;60.67
3668;BME280;24099;47.102;15.440;2023-06-01T13:05:33;96923.06;;;27.57;64.55
3668;BME280;24099;47.102;15.440;2023-06-01T13:08:01;96911.22;;;27.85;58.86
3668;BME280;24099;47.102;15.440;2023-06-01T13:10:29;96909.00;;;27.73;60.16
3668;BME280;24099;47.102;15.440;2023-06-01T13:12:57;96904.09;;;27.75;59.69
3668;BME280;24099;47.102;15.440;2023-06-01T13:15:24;96899.13;;;27.96;58.15
3668;BME280;24099;47.102;15.440;2023-06-01T13:17:53;96903.91;;;27.72;59.22